createdAt,value
2022-10-08T00:01:55.561Z,5.50
2022-10-08T00:04:58.631Z,4.50
2022-10-08T00:08:00.909Z,5.73
2022-10-08T00:11:08.952Z,3.63
2022-10-08T00:14:10.985Z,4.23
2022-10-08T00:17:12.799Z,6.23
2022-10-08T00:20:15.110Z,3.83
2022-10-08T00:23:17.448Z,6.07
2022-10-08T00:26:24.105Z,4.97
2022-10-08T00:29:26.119Z,4.50
2022-10-08T00:32:28.061Z,5.77
2022-10-08T00:35:29.989Z,5.70
2022-10-08T00:38:32.269Z,5.50
2022-10-08T00:41:38.415Z,6.70
2022-10-08T00:44:54.278Z,5.93
2022-10-08T00:47:58.445Z,6.30
2022-10-08T00:51:00.458Z,5.27
2022-10-08T00:54:03.764Z,7.67
2022-10-08T00:57:06.700Z,4.30
2022-10-08T01:00:13.761Z,4.40
2022-10-08T01:03:16.299Z,6.17
2022-10-08T01:06:32.931Z,5.83
2022-10-08T01:10:03.601Z,6.07
2022-10-08T01:13:05.459Z,3.97
2022-10-08T01:16:43.303Z,7.97
2022-10-08T01:20:00.502Z,4.33
2022-10-08T01:23:27.293Z,4.57
2022-10-08T01:26:50.124Z,4.00
2022-10-08T01:29:52.939Z,8.17
2022-10-08T01:33:12.619Z,10.13
2022-10-08T01:36:18.309Z,5.57
2022-10-08T01:39:22.135Z,6.87
2022-10-08T01:42:24.738Z,6.37
2022-10-08T01:45:33.017Z,6.33
2022-10-08T01:48:38.698Z,7.50
2022-10-08T01:51:49.715Z,7.33
2022-10-08T01:54:56.138Z,6.93
2022-10-08T01:58:01.829Z,4.93
2022-10-08T02:01:09.381Z,4.90
2022-10-08T02:04:30.318Z,5.37
2022-10-08T02:07:36.206Z,3.53
2022-10-08T02:10:38.452Z,4.97
2022-10-08T02:13:41.404Z,4.93
2022-10-08T02:16:51.204Z,5.70
2022-10-08T02:19:56.763Z,7.73
2022-10-08T02:23:17.942Z,6.70
2022-10-08T02:26:23.502Z,3.30
2022-10-08T02:29:33.904Z,6.67
2022-10-08T02:32:59.475Z,6.70
2022-10-08T02:36:03.459Z,9.70
2022-10-08T02:39:06.443Z,3.87
2022-10-08T02:42:14.659Z,4.90
2022-10-08T02:45:25.069Z,3.80
2022-10-08T02:48:31.835Z,4.83
2022-10-08T02:51:38.059Z,4.07
2022-10-08T02:54:43.519Z,4.30
2022-10-08T02:57:49.294Z,4.17
2022-10-08T03:01:00.307Z,7.07
2022-10-08T03:04:23.503Z,4.93
2022-10-08T03:07:26.544Z,5.10
2022-10-08T03:10:29.221Z,7.03
2022-10-08T03:13:37.854Z,5.57
2022-10-08T03:16:42.195Z,7.03
2022-10-08T03:19:44.320Z,4.83
2022-10-08T03:22:46.456Z,5.97
2022-10-08T03:25:48.645Z,4.47
2022-10-08T03:28:53.464Z,5.40
2022-10-08T03:31:55.425Z,8.27
2022-10-08T03:34:57.638Z,3.60
2022-10-08T03:37:59.675Z,5.37
2022-10-08T03:41:01.829Z,3.00
2022-10-08T03:44:04.335Z,3.33
2022-10-08T03:47:06.385Z,3.37
2022-10-08T03:50:09.608Z,3.23
2022-10-08T03:53:11.540Z,5.27
2022-10-08T03:56:17.058Z,8.47
2022-10-08T03:59:18.905Z,5.83
2022-10-08T04:02:20.850Z,8.53
2022-10-08T04:05:22.660Z,6.33
2022-10-08T04:08:25.619Z,4.07
2022-10-08T04:11:29.312Z,5.87
2022-10-08T04:14:31.554Z,4.67
2022-10-08T04:17:33.388Z,7.30
2022-10-08T04:20:35.343Z,6.37
2022-10-08T04:23:38.595Z,7.20
2022-10-08T04:26:41.374Z,4.77
2022-10-08T04:29:43.284Z,4.90
2022-10-08T04:32:45.476Z,5.27
2022-10-08T04:35:47.694Z,4.00
2022-10-08T04:38:50.498Z,14.60
2022-10-08T04:41:52.459Z,5.37
2022-10-08T04:44:55.317Z,5.23
2022-10-08T04:47:57.164Z,3.50
2022-10-08T04:51:01.137Z,4.50
2022-10-08T04:54:03.064Z,5.40
2022-10-08T04:57:05.329Z,5.47
2022-10-08T05:00:18.140Z,4.47
2022-10-08T05:03:21.293Z,3.87
2022-10-08T05:06:26.450Z,3.93
2022-10-08T05:09:28.350Z,8.20
2022-10-08T05:12:30.152Z,6.90
2022-10-08T05:15:32.178Z,11.10
2022-10-08T05:18:34.768Z,4.67
2022-10-08T05:21:36.921Z,5.50
2022-10-08T05:24:38.872Z,3.37
2022-10-08T05:27:41.388Z,9.90
2022-10-08T05:30:43.215Z,6.93
2022-10-08T05:33:45.414Z,8.77
2022-10-08T05:36:47.311Z,4.97
2022-10-08T05:39:49.518Z,5.65
2022-10-08T05:42:51.439Z,4.80
2022-10-08T05:45:53.371Z,6.47
2022-10-08T05:48:56.600Z,5.13
2022-10-08T05:51:58.924Z,7.47
2022-10-08T05:55:00.859Z,4.27
2022-10-08T05:58:02.812Z,4.77
2022-10-08T06:01:06.759Z,3.23
2022-10-08T06:04:11.320Z,6.00
2022-10-08T06:07:13.908Z,4.37
2022-10-08T06:10:15.789Z,5.07
2022-10-08T06:13:18.145Z,5.10
2022-10-08T06:16:21.010Z,6.87
2022-10-08T06:19:23.190Z,6.63
2022-10-08T06:22:25.019Z,3.40
2022-10-08T06:25:26.885Z,7.03
2022-10-08T06:28:28.807Z,7.17
2022-10-08T06:31:31.734Z,14.97
2022-10-08T06:34:33.618Z,8.57
2022-10-08T06:37:35.596Z,5.90
2022-10-08T06:40:41.044Z,6.83
2022-10-08T06:43:44.269Z,6.43
2022-10-08T06:46:46.312Z,4.43
2022-10-08T06:49:48.305Z,8.00
2022-10-08T06:52:50.365Z,7.17
2022-10-08T06:55:59.584Z,4.97
2022-10-08T06:59:01.413Z,10.17
2022-10-08T07:02:03.447Z,4.60
2022-10-08T07:05:06.123Z,4.60
2022-10-08T07:08:08.059Z,4.90
2022-10-08T07:11:17.909Z,5.43
2022-10-08T07:14:19.883Z,8.40
2022-10-08T07:17:22.826Z,6.43
2022-10-08T07:20:25.346Z,4.47
2022-10-08T07:23:27.269Z,4.93
2022-10-08T07:26:32.690Z,4.90
2022-10-08T07:29:34.508Z,3.03
2022-10-08T07:32:36.379Z,5.37
2022-10-08T07:35:39.097Z,7.10
2022-10-08T07:38:41.638Z,5.13
2022-10-08T07:41:43.507Z,4.87
2022-10-08T07:44:45.739Z,9.50
2022-10-08T07:47:47.583Z,6.93
2022-10-08T07:50:49.766Z,8.10
2022-10-08T07:53:52.185Z,7.07
2022-10-08T07:56:54.194Z,8.80
2022-10-08T07:59:56.063Z,4.43
2022-10-08T08:02:58.051Z,7.53
2022-10-08T08:06:05.010Z,5.80
2022-10-08T08:09:07.045Z,6.13
2022-10-08T08:12:09.287Z,3.97
2022-10-08T08:15:11.424Z,7.87
2022-10-08T08:18:13.393Z,7.57
2022-10-08T08:21:18.135Z,5.37
2022-10-08T08:24:20.188Z,5.67
2022-10-08T08:27:22.598Z,8.47
2022-10-08T08:30:24.583Z,6.23
2022-10-08T08:33:26.449Z,7.07
2022-10-08T08:36:30.975Z,8.43
2022-10-08T08:39:34.399Z,6.57
2022-10-08T08:42:48.641Z,5.70
2022-10-08T08:45:50.871Z,5.50
2022-10-08T08:48:54.449Z,6.63
2022-10-08T08:51:57.976Z,5.20
2022-10-08T08:55:00.882Z,7.53
2022-10-08T08:58:10.002Z,4.40
2022-10-08T09:01:31.760Z,8.33
2022-10-08T09:04:50.658Z,11.50
2022-10-08T09:08:18.820Z,8.47
2022-10-08T09:11:22.659Z,7.70
2022-10-08T09:14:33.269Z,7.30
2022-10-08T09:17:39.244Z,6.00
2022-10-08T09:20:41.427Z,5.93
2022-10-08T09:23:43.949Z,6.07
2022-10-08T09:26:46.236Z,6.30
2022-10-08T09:29:48.084Z,4.43
2022-10-08T09:32:50.888Z,6.30
2022-10-08T09:35:54.088Z,6.13
2022-10-08T09:38:59.863Z,5.17
2022-10-08T09:42:11.009Z,7.60
2022-10-08T09:45:35.668Z,7.10
2022-10-08T09:48:38.745Z,4.40
2022-10-08T09:51:43.224Z,4.97
2022-10-08T09:54:51.233Z,4.45
2022-10-08T09:58:00.759Z,5.00
2022-10-08T10:01:14.164Z,6.60
2022-10-08T10:04:31.366Z,4.13
2022-10-08T10:07:44.783Z,5.30
2022-10-08T10:10:46.891Z,4.65
2022-10-08T10:13:51.391Z,4.95
2022-10-08T10:17:02.526Z,4.18
2022-10-08T10:20:11.664Z,3.05
2022-10-08T10:23:29.969Z,4.35
2022-10-08T10:26:37.545Z,4.93
2022-10-08T10:30:14.255Z,4.18
2022-10-08T10:33:25.034Z,4.47
2022-10-08T10:36:31.199Z,7.40
2022-10-08T10:39:39.082Z,6.70
2022-10-08T10:42:47.815Z,5.28
2022-10-08T10:45:59.509Z,4.85
2022-10-08T10:49:02.279Z,5.72
2022-10-08T10:52:22.049Z,3.85
2022-10-08T10:56:15.463Z,4.35
2022-10-08T10:59:29.024Z,4.63
2022-10-08T11:02:47.589Z,4.95
2022-10-08T11:06:14.511Z,5.18
2022-10-08T11:09:30.955Z,5.13
2022-10-08T11:12:53.196Z,8.18
2022-10-08T11:16:15.481Z,6.63
2022-10-08T11:19:28.665Z,7.43
2022-10-08T11:22:41.126Z,4.90
2022-10-08T11:26:15.420Z,4.20
2022-10-08T11:29:38.776Z,12.43
2022-10-08T11:32:50.771Z,12.85
2022-10-08T11:36:32.622Z,12.52
2022-10-08T11:39:43.509Z,6.05
2022-10-08T11:43:21.136Z,5.80
2022-10-08T11:46:31.828Z,10.90
2022-10-08T11:49:34.029Z,10.18
2022-10-08T11:52:35.968Z,4.47
2022-10-08T11:55:38.503Z,10.40
2022-10-08T11:58:41.054Z,5.55
2022-10-08T12:01:54.863Z,7.55
2022-10-08T12:04:59.487Z,8.52
2022-10-08T12:08:06.563Z,6.63
2022-10-08T12:11:32.400Z,3.08
2022-10-08T12:14:45.449Z,5.15
2022-10-08T12:17:57.682Z,9.43
2022-10-08T12:21:18.262Z,6.60
2022-10-08T12:24:38.336Z,7.70
2022-10-08T12:27:41.526Z,10.98
2022-10-08T12:30:54.306Z,7.00
2022-10-08T12:34:01.983Z,6.30
2022-10-08T12:37:32.199Z,7.65
2022-10-08T12:40:55.274Z,6.55
2022-10-08T12:44:12.664Z,7.60
2022-10-08T12:47:43.127Z,7.18
2022-10-08T12:50:54.095Z,8.38
2022-10-08T12:53:57.261Z,5.90
2022-10-08T12:57:00.404Z,9.93
2022-10-08T13:00:17.172Z,5.57
2022-10-08T13:03:20.453Z,5.15
2022-10-08T13:06:33.711Z,7.63
2022-10-08T13:09:36.459Z,6.38
2022-10-08T13:12:38.365Z,11.57
2022-10-08T13:15:41.013Z,10.82
2022-10-08T13:18:50.335Z,5.45
2022-10-08T13:22:08.443Z,6.75
2022-10-08T13:25:36.564Z,7.05
2022-10-08T13:28:59.457Z,7.32
2022-10-08T13:32:15.453Z,10.38
2022-10-08T13:35:23.708Z,7.20
2022-10-08T13:38:28.457Z,8.40
2022-10-08T13:41:30.308Z,5.57
2022-10-08T13:44:33.087Z,4.93
2022-10-08T13:47:34.974Z,7.35
2022-10-08T13:50:36.888Z,6.28
2022-10-08T13:53:42.464Z,14.68
2022-10-08T13:56:44.404Z,6.43
2022-10-08T13:59:46.328Z,5.82
2022-10-08T14:02:49.164Z,8.10
2022-10-08T14:05:51.024Z,33.05
2022-10-08T14:08:52.987Z,24.70
2022-10-08T14:11:59.382Z,8.98
2022-10-08T14:15:02.306Z,6.13
2022-10-08T14:18:04.319Z,11.07
2022-10-08T14:21:07.405Z,4.65
2022-10-08T14:24:10.886Z,6.45
2022-10-08T14:27:12.879Z,9.02
2022-10-08T14:30:15.989Z,7.88
2022-10-08T14:33:17.945Z,7.03
2022-10-08T14:36:21.199Z,13.27
2022-10-08T14:39:23.388Z,6.78
2022-10-08T14:42:25.204Z,6.63
2022-10-08T14:45:27.738Z,4.32
2022-10-08T14:48:29.659Z,8.80
2022-10-08T14:51:38.542Z,7.88
2022-10-08T14:54:40.509Z,5.93
2022-10-08T14:57:42.525Z,8.38
2022-10-08T15:00:44.426Z,8.63
2022-10-08T15:03:46.590Z,7.70
2022-10-08T15:06:49.111Z,4.20
2022-10-08T15:09:51.228Z,8.27
2022-10-08T15:12:53.077Z,7.38
2022-10-08T15:15:55.063Z,7.13
2022-10-08T15:18:56.979Z,6.97
2022-10-08T15:21:59.256Z,10.50
2022-10-08T15:25:01.294Z,6.43
2022-10-08T15:28:05.060Z,10.53
2022-10-08T15:31:14.473Z,6.77
2022-10-08T15:34:17.787Z,6.40
2022-10-08T15:37:20.006Z,9.75
2022-10-08T15:40:22.142Z,9.27
2022-10-08T15:43:32.650Z,8.50
2022-10-08T15:46:35.249Z,7.50
2022-10-08T15:49:39.374Z,16.27
2022-10-08T15:52:46.061Z,12.10
2022-10-08T15:55:55.974Z,12.13
2022-10-08T15:58:59.523Z,16.00
2022-10-08T16:02:01.599Z,8.43
2022-10-08T16:05:03.789Z,10.87
2022-10-08T16:08:08.964Z,9.57
2022-10-08T16:11:22.978Z,9.53
2022-10-08T16:14:26.226Z,13.33
2022-10-08T16:17:28.479Z,15.67
2022-10-08T16:20:30.349Z,15.80
2022-10-08T16:23:34.293Z,16.10
2022-10-08T16:26:37.194Z,12.77
2022-10-08T16:29:39.150Z,12.57
2022-10-08T16:32:41.080Z,12.87
2022-10-08T16:35:43.440Z,12.57
2022-10-08T16:38:45.381Z,12.07
2022-10-08T16:41:48.068Z,12.43
2022-10-08T16:44:49.902Z,16.33
2022-10-08T16:47:52.969Z,13.40
2022-10-08T16:50:54.803Z,16.63
2022-10-08T16:53:58.406Z,14.60
2022-10-08T16:57:00.442Z,13.33
2022-10-08T17:00:02.474Z,18.43
2022-10-08T17:03:04.683Z,14.53
2022-10-08T17:06:07.243Z,20.20
2022-10-08T17:09:09.618Z,19.23
2022-10-08T17:12:11.551Z,21.67
2022-10-08T17:15:13.558Z,17.90
2022-10-08T17:18:15.929Z,19.40
2022-10-08T17:21:18.120Z,16.97
2022-10-08T17:24:20.127Z,18.90
2022-10-08T17:27:22.334Z,20.77
2022-10-08T17:30:24.733Z,22.10
2022-10-08T17:33:30.117Z,17.90
2022-10-08T17:36:37.814Z,23.37
2022-10-08T17:39:39.829Z,23.33
2022-10-08T17:42:41.972Z,21.57
2022-10-08T17:49:33.212Z,22.17
2022-10-08T17:52:35.229Z,17.20
2022-10-08T17:55:37.138Z,20.13
2022-10-08T17:58:39.627Z,24.80
2022-10-08T18:01:45.006Z,20.83
2022-10-08T18:04:47.410Z,20.87
2022-10-08T18:07:49.358Z,19.30
2022-10-08T18:10:52.010Z,19.27
2022-10-08T18:13:54.297Z,23.57
2022-10-08T18:16:56.888Z,21.03
2022-10-08T18:19:58.849Z,17.63
2022-10-08T18:23:00.827Z,16.23
2022-10-08T18:26:25.679Z,14.07
2022-10-08T18:29:27.527Z,13.17
2022-10-08T18:32:30.283Z,16.57
2022-10-08T18:35:32.963Z,15.03
2022-10-08T18:38:35.917Z,13.70
2022-10-08T18:41:42.939Z,18.23
2022-10-08T18:44:44.883Z,11.60
2022-10-08T18:47:46.718Z,13.20
2022-10-08T18:50:48.695Z,10.73
2022-10-08T18:53:51.877Z,9.13
2022-10-08T18:56:55.660Z,15.60
2022-10-08T18:59:57.488Z,11.37
2022-10-08T19:02:59.828Z,13.10
2022-10-08T19:06:02.001Z,11.00
2022-10-08T19:09:05.662Z,15.07
2022-10-08T19:12:08.647Z,8.80
2022-10-08T19:15:10.942Z,8.60
2022-10-08T19:18:12.859Z,10.03
2022-10-08T19:21:14.843Z,8.57
2022-10-08T19:24:20.106Z,11.13
2022-10-08T19:27:22.239Z,9.10
2022-10-08T19:30:27.374Z,6.60
2022-10-08T19:33:31.403Z,6.50
2022-10-08T19:36:36.339Z,6.50
2022-10-08T19:39:43.129Z,12.20
2022-10-08T19:42:45.964Z,6.87
2022-10-08T19:45:48.302Z,9.93
2022-10-08T19:48:52.084Z,9.40
2022-10-08T19:51:54.731Z,10.87
2022-10-08T19:54:56.577Z,8.73
2022-10-08T19:57:58.533Z,7.70
2022-10-08T20:01:13.448Z,12.50
2022-10-08T20:04:17.022Z,8.60
2022-10-08T20:07:18.993Z,8.73
2022-10-08T20:10:20.983Z,9.20
2022-10-08T20:13:22.848Z,10.90
2022-10-08T20:16:26.317Z,10.27
2022-10-08T20:19:28.219Z,9.77
2022-10-08T20:22:30.269Z,9.87
2022-10-08T20:25:32.169Z,11.73
2022-10-08T20:28:34.362Z,15.37
2022-10-08T20:31:39.445Z,10.20
2022-10-08T20:34:42.663Z,9.97
2022-10-08T20:37:44.493Z,13.13
2022-10-08T20:40:46.545Z,8.67
2022-10-08T20:43:48.725Z,12.13
2022-10-08T20:46:51.913Z,10.27
2022-10-08T20:49:53.873Z,8.13
2022-10-08T20:52:55.974Z,9.87
2022-10-08T20:56:02.168Z,10.60
2022-10-08T20:59:04.583Z,7.73
2022-10-08T21:02:06.964Z,7.90
2022-10-08T21:05:09.158Z,8.43
2022-10-08T21:08:11.101Z,8.20
2022-10-08T21:11:18.292Z,7.73
2022-10-08T21:14:22.738Z,8.20
2022-10-08T21:17:25.143Z,8.70
2022-10-08T21:20:27.043Z,7.60
2022-10-08T21:23:28.964Z,9.30
2022-10-08T21:26:32.824Z,11.13
2022-10-08T21:29:35.421Z,9.73
2022-10-08T21:32:37.265Z,6.23
2022-10-08T21:35:39.172Z,7.27
2022-10-08T21:38:41.648Z,9.53
2022-10-08T21:41:44.386Z,8.53
2022-10-08T21:44:46.226Z,12.43
2022-10-08T21:47:48.233Z,7.27
2022-10-08T21:51:04.818Z,10.43
2022-10-08T21:54:07.967Z,8.47
2022-10-08T21:57:12.231Z,6.70
2022-10-08T22:00:17.458Z,10.20
2022-10-08T22:03:19.656Z,12.10
2022-10-08T22:06:22.348Z,4.90
2022-10-08T22:09:26.808Z,7.30
2022-10-08T22:12:29.028Z,6.07
2022-10-08T22:15:32.207Z,5.13
2022-10-08T22:18:35.915Z,8.60
2022-10-08T22:21:38.494Z,8.73
2022-10-08T22:24:40.468Z,9.43
2022-10-08T22:27:42.357Z,9.13
2022-10-08T22:30:44.368Z,14.27
2022-10-08T22:33:47.103Z,7.50
2022-10-08T22:36:49.070Z,9.03
2022-10-08T22:39:50.919Z,5.97
2022-10-08T22:42:52.813Z,10.70
2022-10-08T22:45:54.717Z,5.60
2022-10-08T22:49:01.357Z,8.00
2022-10-08T22:52:03.232Z,7.53
2022-10-08T22:55:05.513Z,6.50
2022-10-08T22:58:07.515Z,6.23
2022-10-08T23:01:12.227Z,6.80
2022-10-08T23:04:14.083Z,5.73
2022-10-08T23:07:16.631Z,7.13
2022-10-08T23:10:18.538Z,10.00
2022-10-08T23:13:20.406Z,5.73
2022-10-08T23:16:23.293Z,5.23
2022-10-08T23:19:25.945Z,8.07
2022-10-08T23:22:28.893Z,4.97
2022-10-08T23:25:30.818Z,7.87
2022-10-08T23:28:34.139Z,11.87
2022-10-08T23:31:36.721Z,7.33
2022-10-08T23:34:38.579Z,9.13
2022-10-08T23:37:40.558Z,7.37
2022-10-08T23:40:42.454Z,6.33
2022-10-08T23:43:47.222Z,5.70
2022-10-08T23:46:49.118Z,9.07
2022-10-08T23:49:51.275Z,11.33
2022-10-08T23:52:53.153Z,9.57
2022-10-08T23:55:55.208Z,8.47
2022-10-08T23:58:57.989Z,7.53
